sensor_id;sensor_type;location;lat;lon;timestamp;temperature;humidity
68011;DHT22;54794;48.348;7.878;2023-05-08T00:00:40;20.50;58.40
68011;DHT22;54794;48.348;7.878;2023-05-08T00:03:07;20.50;58.40
68011;DHT22;54794;48.348;7.878;2023-05-08T00:05:35;20.50;59.00
68011;DHT22;54794;48.348;7.878;2023-05-08T00:08:02;20.40;58.50
68011;DHT22;54794;48.348;7.878;2023-05-08T00:10:29;20.40;58.50
68011;DHT22;54794;48.348;7.878;2023-05-08T00:12:56;20.40;58.60
68011;DHT22;54794;48.348;7.878;2023-05-08T00:15:23;20.40;58.70
68011;DHT22;54794;48.348;7.878;2023-05-08T00:17:50;20.40;58.70
68011;DHT22;54794;48.348;7.878;2023-05-08T00:20:17;20.40;58.70
68011;DHT22;54794;48.348;7.878;2023-05-08T00:22:44;20.40;58.80
68011;DHT22;54794;48.348;7.878;2023-05-08T00:25:11;20.40;58.80
68011;DHT22;54794;48.348;7.878;2023-05-08T00:27:38;20.40;58.90
68011;DHT22;54794;48.348;7.878;2023-05-08T00:30:07;20.40;59.00
68011;DHT22;54794;48.348;7.878;2023-05-08T00:32:34;20.40;59.10
68011;DHT22;54794;48.348;7.878;2023-05-08T00:35:01;20.40;59.00
68011;DHT22;54794;48.348;7.878;2023-05-08T00:37:28;20.40;59.10
68011;DHT22;54794;48.348;7.878;2023-05-08T00:39:55;20.40;59.20
68011;DHT22;54794;48.348;7.878;2023-05-08T00:42:22;20.40;59.20
68011;DHT22;54794;48.348;7.878;2023-05-08T00:44:49;20.40;59.30
68011;DHT22;54794;48.348;7.878;2023-05-08T00:47:16;20.40;59.30
68011;DHT22;54794;48.348;7.878;2023-05-08T00:49:43;20.40;59.30
68011;DHT22;54794;48.348;7.878;2023-05-08T00:52:11;20.30;59.00
68011;DHT22;54794;48.348;7.878;2023-05-08T00:54:39;20.30;59.20
68011;DHT22;54794;48.348;7.878;2023-05-08T00:57:06;20.30;59.20
68011;DHT22;54794;48.348;7.878;2023-05-08T00:59:35;20.30;59.40
68011;DHT22;54794;48.348;7.878;2023-05-08T01:02:03;20.30;59.50
68011;DHT22;54794;48.348;7.878;2023-05-08T01:04:30;20.30;59.50
68011;DHT22;54794;48.348;7.878;2023-05-08T01:07:00;20.30;59.60
68011;DHT22;54794;48.348;7.878;2023-05-08T01:09:28;20.30;59.70
68011;DHT22;54794;48.348;7.878;2023-05-08T01:12:06;20.20;59.60
68011;DHT22;54794;48.348;7.878;2023-05-08T01:14:50;20.20;60.10
68011;DHT22;54794;48.348;7.878;2023-05-08T01:21:30;20.20;60.20
68011;DHT22;54794;48.348;7.878;2023-05-08T01:36:16;20.10;59.90
68011;DHT22;54794;48.348;7.878;2023-05-08T01:39:10;20.10;60.10
68011;DHT22;54794;48.348;7.878;2023-05-08T01:42:14;20.10;60.50
68011;DHT22;54794;48.348;7.878;2023-05-08T01:44:48;20.10;60.50
68011;DHT22;54794;48.348;7.878;2023-05-08T01:47:23;20.10;60.20
68011;DHT22;54794;48.348;7.878;2023-05-08T01:50:05;20.10;60.30
68011;DHT22;54794;48.348;7.878;2023-05-08T01:52:52;20.00;60.50
68011;DHT22;54794;48.348;7.878;2023-05-08T01:55:35;20.00;60.80
68011;DHT22;54794;48.348;7.878;2023-05-08T01:58:06;20.00;60.60
68011;DHT22;54794;48.348;7.878;2023-05-08T02:00:38;20.00;60.80
68011;DHT22;54794;48.348;7.878;2023-05-08T02:03:07;20.00;60.50
68011;DHT22;54794;48.348;7.878;2023-05-08T02:05:36;20.00;60.40
68011;DHT22;54794;48.348;7.878;2023-05-08T02:08:08;20.00;60.40
68011;DHT22;54794;48.348;7.878;2023-05-08T02:10:37;20.00;60.60
68011;DHT22;54794;48.348;7.878;2023-05-08T02:13:07;20.00;60.60
68011;DHT22;54794;48.348;7.878;2023-05-08T02:15:36;20.00;60.70
68011;DHT22;54794;48.348;7.878;2023-05-08T02:18:06;20.00;60.70
68011;DHT22;54794;48.348;7.878;2023-05-08T02:20:35;20.00;61.50
68011;DHT22;54794;48.348;7.878;2023-05-08T02:23:04;20.00;60.80
68011;DHT22;54794;48.348;7.878;2023-05-08T02:25:32;19.90;60.70
68011;DHT22;54794;48.348;7.878;2023-05-08T02:28:01;20.00;60.90
68011;DHT22;54794;48.348;7.878;2023-05-08T02:30:29;20.00;61.00
68011;DHT22;54794;48.348;7.878;2023-05-08T02:32:56;19.90;61.00
68011;DHT22;54794;48.348;7.878;2023-05-08T02:35:28;20.00;61.10
68011;DHT22;54794;48.348;7.878;2023-05-08T02:38:09;20.00;60.80
68011;DHT22;54794;48.348;7.878;2023-05-08T02:50:22;19.90;61.60
68011;DHT22;54794;48.348;7.878;2023-05-08T03:00:07;19.90;61.70
68011;DHT22;54794;48.348;7.878;2023-05-08T03:02:53;19.90;61.50
68011;DHT22;54794;48.348;7.878;2023-05-08T03:05:34;19.90;61.80
68011;DHT22;54794;48.348;7.878;2023-05-08T03:08:13;19.90;61.80
68011;DHT22;54794;48.348;7.878;2023-05-08T03:10:43;19.90;61.80
68011;DHT22;54794;48.348;7.878;2023-05-08T03:13:15;19.90;61.60
68011;DHT22;54794;48.348;7.878;2023-05-08T03:15:51;19.90;61.60
68011;DHT22;54794;48.348;7.878;2023-05-08T03:18:32;19.80;61.70
68011;DHT22;54794;48.348;7.878;2023-05-08T03:21:02;19.90;61.80
68011;DHT22;54794;48.348;7.878;2023-05-08T03:23:35;19.90;61.70
68011;DHT22;54794;48.348;7.878;2023-05-08T03:26:04;19.90;61.80
68011;DHT22;54794;48.348;7.878;2023-05-08T03:28:35;19.90;61.80
68011;DHT22;54794;48.348;7.878;2023-05-08T03:31:04;19.90;62.40
68011;DHT22;54794;48.348;7.878;2023-05-08T03:33:33;19.90;61.90
68011;DHT22;54794;48.348;7.878;2023-05-08T03:36:03;19.90;62.00
68011;DHT22;54794;48.348;7.878;2023-05-08T03:38:33;19.80;61.90
68011;DHT22;54794;48.348;7.878;2023-05-08T03:41:01;19.90;62.00
68011;DHT22;54794;48.348;7.878;2023-05-08T03:43:29;19.90;62.00
68011;DHT22;54794;48.348;7.878;2023-05-08T03:45:57;19.80;62.10
68011;DHT22;54794;48.348;7.878;2023-05-08T03:48:26;19.90;62.10
68011;DHT22;54794;48.348;7.878;2023-05-08T03:50:54;19.80;62.10
68011;DHT22;54794;48.348;7.878;2023-05-08T03:53:22;19.80;62.10
68011;DHT22;54794;48.348;7.878;2023-05-08T03:55:49;19.80;62.20
68011;DHT22;54794;48.348;7.878;2023-05-08T03:58:18;19.80;62.20
68011;DHT22;54794;48.348;7.878;2023-05-08T04:04:22;19.80;62.90
68011;DHT22;54794;48.348;7.878;2023-05-08T04:09:37;19.80;62.80
68011;DHT22;54794;48.348;7.878;2023-05-08T04:12:19;19.80;62.40
68011;DHT22;54794;48.348;7.878;2023-05-08T04:14:52;19.80;63.10
68011;DHT22;54794;48.348;7.878;2023-05-08T04:17:32;19.80;62.60
68011;DHT22;54794;48.348;7.878;2023-05-08T04:20:06;19.80;63.00
68011;DHT22;54794;48.348;7.878;2023-05-08T04:22:37;19.80;62.80
68011;DHT22;54794;48.348;7.878;2023-05-08T04:25:06;19.80;62.90
68011;DHT22;54794;48.348;7.878;2023-05-08T04:27:36;19.80;62.80
68011;DHT22;54794;48.348;7.878;2023-05-08T04:30:04;19.80;63.00
68011;DHT22;54794;48.348;7.878;2023-05-08T04:32:32;19.70;62.90
68011;DHT22;54794;48.348;7.878;2023-05-08T04:35:03;19.70;63.00
68011;DHT22;54794;48.348;7.878;2023-05-08T04:37:31;19.70;63.00
68011;DHT22;54794;48.348;7.878;2023-05-08T04:39:59;19.80;63.10
68011;DHT22;54794;48.348;7.878;2023-05-08T04:42:26;19.80;63.10
68011;DHT22;54794;48.348;7.878;2023-05-08T04:44:53;19.80;63.10
68011;DHT22;54794;48.348;7.878;2023-05-08T04:47:21;19.80;63.20
68011;DHT22;54794;48.348;7.878;2023-05-08T04:49:49;19.80;63.20
68011;DHT22;54794;48.348;7.878;2023-05-08T04:52:16;19.80;63.20
68011;DHT22;54794;48.348;7.878;2023-05-08T04:54:43;19.80;63.30
68011;DHT22;54794;48.348;7.878;2023-05-08T04:57:10;19.80;63.20
68011;DHT22;54794;48.348;7.878;2023-05-08T04:59:37;19.80;63.30
68011;DHT22;54794;48.348;7.878;2023-05-08T05:02:04;19.80;63.30
68011;DHT22;54794;48.348;7.878;2023-05-08T05:04:37;19.80;63.30
68011;DHT22;54794;48.348;7.878;2023-05-08T05:07:04;19.80;64.10
68011;DHT22;54794;48.348;7.878;2023-05-08T05:09:31;19.80;63.30
68011;DHT22;54794;48.348;7.878;2023-05-08T05:12:03;19.80;63.30
68011;DHT22;54794;48.348;7.878;2023-05-08T05:14:31;19.80;63.40
68011;DHT22;54794;48.348;7.878;2023-05-08T05:16:58;19.80;63.40
68011;DHT22;54794;48.348;7.878;2023-05-08T05:19:25;19.80;63.30
68011;DHT22;54794;48.348;7.878;2023-05-08T05:21:52;19.90;63.40
68011;DHT22;54794;48.348;7.878;2023-05-08T05:24:19;19.90;63.40
68011;DHT22;54794;48.348;7.878;2023-05-08T05:26:46;19.90;63.40
68011;DHT22;54794;48.348;7.878;2023-05-08T05:29:13;19.90;63.50
68011;DHT22;54794;48.348;7.878;2023-05-08T05:31:43;19.90;63.50
68011;DHT22;54794;48.348;7.878;2023-05-08T05:34:10;19.90;63.50
68011;DHT22;54794;48.348;7.878;2023-05-08T05:36:37;19.90;63.50
68011;DHT22;54794;48.348;7.878;2023-05-08T05:39:04;19.90;63.50
68011;DHT22;54794;48.348;7.878;2023-05-08T05:41:31;19.90;63.60
68011;DHT22;54794;48.348;7.878;2023-05-08T05:43:57;19.90;63.60
68011;DHT22;54794;48.348;7.878;2023-05-08T05:46:24;19.90;63.70
68011;DHT22;54794;48.348;7.878;2023-05-08T05:48:58;19.90;63.60
68011;DHT22;54794;48.348;7.878;2023-05-08T05:51:25;19.90;63.70
68011;DHT22;54794;48.348;7.878;2023-05-08T05:54:07;20.00;63.80
68011;DHT22;54794;48.348;7.878;2023-05-08T05:56:33;19.90;63.70
68011;DHT22;54794;48.348;7.878;2023-05-08T05:59:01;20.00;63.90
68011;DHT22;54794;48.348;7.878;2023-05-08T06:01:27;20.00;63.90
68011;DHT22;54794;48.348;7.878;2023-05-08T06:03:55;20.00;64.00
68011;DHT22;54794;48.348;7.878;2023-05-08T06:06:22;20.00;63.90
68011;DHT22;54794;48.348;7.878;2023-05-08T06:08:49;20.00;64.00
68011;DHT22;54794;48.348;7.878;2023-05-08T06:11:16;20.00;64.10
68011;DHT22;54794;48.348;7.878;2023-05-08T06:13:42;20.00;64.20
68011;DHT22;54794;48.348;7.878;2023-05-08T06:16:09;20.10;64.20
68011;DHT22;54794;48.348;7.878;2023-05-08T06:18:37;20.10;64.10
68011;DHT22;54794;48.348;7.878;2023-05-08T06:21:04;20.10;64.40
68011;DHT22;54794;48.348;7.878;2023-05-08T06:23:31;20.10;64.00
68011;DHT22;54794;48.348;7.878;2023-05-08T06:26:05;20.10;63.90
68011;DHT22;54794;48.348;7.878;2023-05-08T06:28:33;20.20;64.10
68011;DHT22;54794;48.348;7.878;2023-05-08T06:31:00;20.20;64.20
68011;DHT22;54794;48.348;7.878;2023-05-08T06:33:27;20.20;64.60
68011;DHT22;54794;48.348;7.878;2023-05-08T06:35:55;20.20;64.20
68011;DHT22;54794;48.348;7.878;2023-05-08T06:38:36;20.20;64.00
68011;DHT22;54794;48.348;7.878;2023-05-08T06:41:03;20.20;64.00
68011;DHT22;54794;48.348;7.878;2023-05-08T06:43:30;20.20;64.00
68011;DHT22;54794;48.348;7.878;2023-05-08T06:45:57;20.20;64.00
68011;DHT22;54794;48.348;7.878;2023-05-08T06:48:24;20.20;64.00
68011;DHT22;54794;48.348;7.878;2023-05-08T06:50:54;20.20;63.90
68011;DHT22;54794;48.348;7.878;2023-05-08T06:53:24;20.20;64.00
68011;DHT22;54794;48.348;7.878;2023-05-08T06:55:55;20.20;64.10
68011;DHT22;54794;48.348;7.878;2023-05-08T06:58:24;20.20;64.20
68011;DHT22;54794;48.348;7.878;2023-05-08T07:00:51;20.20;64.30
68011;DHT22;54794;48.348;7.878;2023-05-08T07:03:18;20.20;64.80
68011;DHT22;54794;48.348;7.878;2023-05-08T07:05:45;20.20;64.30
68011;DHT22;54794;48.348;7.878;2023-05-08T07:08:12;20.20;64.30
68011;DHT22;54794;48.348;7.878;2023-05-08T07:10:39;20.20;64.30
68011;DHT22;54794;48.348;7.878;2023-05-08T07:13:06;20.30;64.40
68011;DHT22;54794;48.348;7.878;2023-05-08T07:15:33;20.30;64.40
68011;DHT22;54794;48.348;7.878;2023-05-08T07:18:00;20.30;64.40
68011;DHT22;54794;48.348;7.878;2023-05-08T07:20:27;20.30;64.40
68011;DHT22;54794;48.348;7.878;2023-05-08T07:22:54;20.30;64.30
68011;DHT22;54794;48.348;7.878;2023-05-08T07:25:21;20.40;64.40
68011;DHT22;54794;48.348;7.878;2023-05-08T07:27:47;20.40;64.40
68011;DHT22;54794;48.348;7.878;2023-05-08T07:30:14;20.40;64.40
68011;DHT22;54794;48.348;7.878;2023-05-08T07:32:42;20.40;64.40
68011;DHT22;54794;48.348;7.878;2023-05-08T07:35:13;20.50;64.40
68011;DHT22;54794;48.348;7.878;2023-05-08T07:37:41;20.40;64.40
68011;DHT22;54794;48.348;7.878;2023-05-08T07:40:13;20.50;64.40
68011;DHT22;54794;48.348;7.878;2023-05-08T07:43:19;20.50;64.50
68011;DHT22;54794;48.348;7.878;2023-05-08T07:45:50;20.50;64.30
68011;DHT22;54794;48.348;7.878;2023-05-08T07:48:17;20.50;64.20
68011;DHT22;54794;48.348;7.878;2023-05-08T07:50:49;20.50;64.30
68011;DHT22;54794;48.348;7.878;2023-05-08T07:53:16;20.50;64.40
68011;DHT22;54794;48.348;7.878;2023-05-08T07:55:43;20.60;64.70
68011;DHT22;54794;48.348;7.878;2023-05-08T07:58:10;20.50;64.20
68011;DHT22;54794;48.348;7.878;2023-05-08T08:00:39;20.50;64.30
68011;DHT22;54794;48.348;7.878;2023-05-08T08:03:14;20.60;64.60
68011;DHT22;54794;48.348;7.878;2023-05-08T08:05:41;20.60;65.20
68011;DHT22;54794;48.348;7.878;2023-05-08T08:08:08;20.70;64.90
68011;DHT22;54794;48.348;7.878;2023-05-08T08:10:37;20.80;64.90
68011;DHT22;54794;48.348;7.878;2023-05-08T08:13:05;20.80;64.80
68011;DHT22;54794;48.348;7.878;2023-05-08T08:15:36;20.80;64.80
68011;DHT22;54794;48.348;7.878;2023-05-08T08:18:03;20.90;64.70
68011;DHT22;54794;48.348;7.878;2023-05-08T08:20:30;20.90;64.60
68011;DHT22;54794;48.348;7.878;2023-05-08T08:22:57;21.00;64.80
68011;DHT22;54794;48.348;7.878;2023-05-08T08:25:24;21.10;64.70
68011;DHT22;54794;48.348;7.878;2023-05-08T08:27:53;21.20;65.00
68011;DHT22;54794;48.348;7.878;2023-05-08T08:30:20;21.20;64.80
68011;DHT22;54794;48.348;7.878;2023-05-08T08:32:50;21.30;64.80
68011;DHT22;54794;48.348;7.878;2023-05-08T08:35:18;21.40;65.00
68011;DHT22;54794;48.348;7.878;2023-05-08T08:37:46;21.40;64.70
68011;DHT22;54794;48.348;7.878;2023-05-08T08:40:15;21.50;65.10
68011;DHT22;54794;48.348;7.878;2023-05-08T08:42:42;21.50;64.40
68011;DHT22;54794;48.348;7.878;2023-05-08T08:45:10;21.60;64.20
68011;DHT22;54794;48.348;7.878;2023-05-08T08:47:38;21.60;64.20
68011;DHT22;54794;48.348;7.878;2023-05-08T08:50:08;21.60;64.00
68011;DHT22;54794;48.348;7.878;2023-05-08T08:53:00;21.60;63.90
68011;DHT22;54794;48.348;7.878;2023-05-08T08:55:28;21.60;64.20
68011;DHT22;54794;48.348;7.878;2023-05-08T09:00:55;21.50;63.60
68011;DHT22;54794;48.348;7.878;2023-05-08T09:03:23;21.50;63.50
68011;DHT22;54794;48.348;7.878;2023-05-08T09:05:52;21.40;63.70
68011;DHT22;54794;48.348;7.878;2023-05-08T09:08:20;21.40;63.80
68011;DHT22;54794;48.348;7.878;2023-05-08T09:10:47;21.40;63.90
68011;DHT22;54794;48.348;7.878;2023-05-08T09:13:14;21.40;64.00
68011;DHT22;54794;48.348;7.878;2023-05-08T09:15:44;21.40;64.10
68011;DHT22;54794;48.348;7.878;2023-05-08T09:18:11;21.40;64.00
68011;DHT22;54794;48.348;7.878;2023-05-08T09:20:40;21.40;64.10
68011;DHT22;54794;48.348;7.878;2023-05-08T09:23:21;21.30;64.10
68011;DHT22;54794;48.348;7.878;2023-05-08T09:25:48;21.30;64.70
68011;DHT22;54794;48.348;7.878;2023-05-08T09:28:24;21.30;64.80
68011;DHT22;54794;48.348;7.878;2023-05-08T09:30:56;21.30;64.60
68011;DHT22;54794;48.348;7.878;2023-05-08T09:33:28;21.30;64.70
68011;DHT22;54794;48.348;7.878;2023-05-08T09:35:55;21.30;64.70
68011;DHT22;54794;48.348;7.878;2023-05-08T09:41:14;21.40;64.90
68011;DHT22;54794;48.348;7.878;2023-05-08T09:43:43;21.40;64.90
68011;DHT22;54794;48.348;7.878;2023-05-08T09:46:24;21.40;64.60
68011;DHT22;54794;48.348;7.878;2023-05-08T09:48:57;21.40;65.00
68011;DHT22;54794;48.348;7.878;2023-05-08T09:51:26;21.40;65.20
68011;DHT22;54794;48.348;7.878;2023-05-08T09:53:56;21.50;65.10
68011;DHT22;54794;48.348;7.878;2023-05-08T09:56:36;21.50;65.10
68011;DHT22;54794;48.348;7.878;2023-05-08T09:59:22;21.50;65.50
68011;DHT22;54794;48.348;7.878;2023-05-08T10:01:54;21.60;65.20
68011;DHT22;54794;48.348;7.878;2023-05-08T10:04:32;21.60;65.10
68011;DHT22;54794;48.348;7.878;2023-05-08T10:07:00;21.70;64.70
68011;DHT22;54794;48.348;7.878;2023-05-08T10:09:28;21.70;64.50
68011;DHT22;54794;48.348;7.878;2023-05-08T10:12:12;21.70;64.50
68011;DHT22;54794;48.348;7.878;2023-05-08T10:14:39;21.70;64.40
68011;DHT22;54794;48.348;7.878;2023-05-08T10:17:09;21.70;64.30
68011;DHT22;54794;48.348;7.878;2023-05-08T10:19:39;21.70;64.40
68011;DHT22;54794;48.348;7.878;2023-05-08T10:22:14;21.80;64.60
68011;DHT22;54794;48.348;7.878;2023-05-08T10:24:44;21.70;64.50
68011;DHT22;54794;48.348;7.878;2023-05-08T10:27:19;21.80;64.70
68011;DHT22;54794;48.348;7.878;2023-05-08T10:30:09;21.80;64.80
68011;DHT22;54794;48.348;7.878;2023-05-08T10:33:02;21.80;64.80
68011;DHT22;54794;48.348;7.878;2023-05-08T10:35:36;21.90;64.70
68011;DHT22;54794;48.348;7.878;2023-05-08T10:38:03;21.90;64.80
68011;DHT22;54794;48.348;7.878;2023-05-08T10:40:41;21.90;64.80
68011;DHT22;54794;48.348;7.878;2023-05-08T10:43:09;22.00;64.90
68011;DHT22;54794;48.348;7.878;2023-05-08T10:45:37;22.00;64.60
68011;DHT22;54794;48.348;7.878;2023-05-08T10:53:45;22.10;64.70
68011;DHT22;54794;48.348;7.878;2023-05-08T10:56:27;22.20;64.20
68011;DHT22;54794;48.348;7.878;2023-05-08T10:58:56;22.20;64.70
68011;DHT22;54794;48.348;7.878;2023-05-08T11:01:25;22.20;64.20
68011;DHT22;54794;48.348;7.878;2023-05-08T11:03:52;22.30;64.70
68011;DHT22;54794;48.348;7.878;2023-05-08T11:09:20;22.50;64.40
68011;DHT22;54794;48.348;7.878;2023-05-08T11:12:20;22.60;64.60
68011;DHT22;54794;48.348;7.878;2023-05-08T11:15:01;22.80;65.00
68011;DHT22;54794;48.348;7.878;2023-05-08T11:17:32;23.10;65.70
68011;DHT22;54794;48.348;7.878;2023-05-08T11:20:21;23.30;65.10
68011;DHT22;54794;48.348;7.878;2023-05-08T11:22:51;23.50;64.90
68011;DHT22;54794;48.348;7.878;2023-05-08T11:25:42;23.70;64.50
68011;DHT22;54794;48.348;7.878;2023-05-08T11:28:09;24.00;64.30
68011;DHT22;54794;48.348;7.878;2023-05-08T11:30:38;24.10;64.10
68011;DHT22;54794;48.348;7.878;2023-05-08T11:33:11;24.30;63.40
68011;DHT22;54794;48.348;7.878;2023-05-08T11:36:11;24.40;63.30
68011;DHT22;54794;48.348;7.878;2023-05-08T11:41:40;24.60;63.10
68011;DHT22;54794;48.348;7.878;2023-05-08T11:44:16;24.80;63.60
68011;DHT22;54794;48.348;7.878;2023-05-08T11:46:51;25.00;63.20
68011;DHT22;54794;48.348;7.878;2023-05-08T11:49:21;25.20;63.00
68011;DHT22;54794;48.348;7.878;2023-05-08T11:52:18;25.40;62.70
68011;DHT22;54794;48.348;7.878;2023-05-08T11:54:46;25.60;62.60
68011;DHT22;54794;48.348;7.878;2023-05-08T11:57:20;25.80;62.40
68011;DHT22;54794;48.348;7.878;2023-05-08T11:59:50;25.90;62.40
68011;DHT22;54794;48.348;7.878;2023-05-08T12:02:34;26.00;61.30
68011;DHT22;54794;48.348;7.878;2023-05-08T12:05:13;26.20;60.60
68011;DHT22;54794;48.348;7.878;2023-05-08T12:07:48;26.30;61.30
68011;DHT22;54794;48.348;7.878;2023-05-08T12:10:17;26.40;60.40
68011;DHT22;54794;48.348;7.878;2023-05-08T12:13:13;26.50;60.40
68011;DHT22;54794;48.348;7.878;2023-05-08T12:15:59;26.70;59.90
68011;DHT22;54794;48.348;7.878;2023-05-08T12:18:48;26.70;58.80
68011;DHT22;54794;48.348;7.878;2023-05-08T12:21:21;26.80;59.80
68011;DHT22;54794;48.348;7.878;2023-05-08T12:23:50;26.80;59.60
68011;DHT22;54794;48.348;7.878;2023-05-08T12:26:17;26.80;59.40
68011;DHT22;54794;48.348;7.878;2023-05-08T12:28:44;26.80;59.30
68011;DHT22;54794;48.348;7.878;2023-05-08T12:31:12;26.80;59.20
68011;DHT22;54794;48.348;7.878;2023-05-08T12:33:40;26.90;59.30
68011;DHT22;54794;48.348;7.878;2023-05-08T12:36:08;27.00;59.50
68011;DHT22;54794;48.348;7.878;2023-05-08T12:38:35;27.00;59.10
68011;DHT22;54794;48.348;7.878;2023-05-08T12:41:02;27.10;59.10
68011;DHT22;54794;48.348;7.878;2023-05-08T12:43:31;27.20;59.20
68011;DHT22;54794;48.348;7.878;2023-05-08T12:46:00;27.40;59.00
68011;DHT22;54794;48.348;7.878;2023-05-08T12:48:29;27.50;58.90
68011;DHT22;54794;48.348;7.878;2023-05-08T12:51:01;27.70;58.70
68011;DHT22;54794;48.348;7.878;2023-05-08T12:53:31;27.80;57.40
68011;DHT22;54794;48.348;7.878;2023-05-08T12:56:03;27.80;57.20
68011;DHT22;54794;48.348;7.878;2023-05-08T12:58:32;27.80;56.60
68011;DHT22;54794;48.348;7.878;2023-05-08T13:01:18;27.70;56.90
68011;DHT22;54794;48.348;7.878;2023-05-08T13:03:51;27.60;56.30
68011;DHT22;54794;48.348;7.878;2023-05-08T13:06:28;27.60;56.60
68011;DHT22;54794;48.348;7.878;2023-05-08T13:08:55;27.50;57.00
68011;DHT22;54794;48.348;7.878;2023-05-08T13:11:29;27.40;56.90
68011;DHT22;54794;48.348;7.878;2023-05-08T13:13:59;27.30;56.10
68011;DHT22;54794;48.348;7.878;2023-05-08T13:16:26;27.20;56.50
68011;DHT22;54794;48.348;7.878;2023-05-08T13:18:53;27.10;56.50
68011;DHT22;54794;48.348;7.878;2023-05-08T13:21:22;26.90;56.30
68011;DHT22;54794;48.348;7.878;2023-05-08T13:23:52;26.80;56.30
68011;DHT22;54794;48.348;7.878;2023-05-08T13:26:20;26.70;56.60
68011;DHT22;54794;48.348;7.878;2023-05-08T13:28:47;26.50;56.60
68011;DHT22;54794;48.348;7.878;2023-05-08T13:31:14;26.40;56.80
68011;DHT22;54794;48.348;7.878;2023-05-08T13:33:40;26.20;56.80
68011;DHT22;54794;48.348;7.878;2023-05-08T13:36:07;26.10;56.90
68011;DHT22;54794;48.348;7.878;2023-05-08T13:38:34;25.90;57.10
68011;DHT22;54794;48.348;7.878;2023-05-08T13:41:01;25.80;57.30
68011;DHT22;54794;48.348;7.878;2023-05-08T13:43:28;25.70;57.50
68011;DHT22;54794;48.348;7.878;2023-05-08T13:45:55;25.50;57.60
68011;DHT22;54794;48.348;7.878;2023-05-08T13:48:22;25.40;57.80
68011;DHT22;54794;48.348;7.878;2023-05-08T13:50:49;25.30;58.00
68011;DHT22;54794;48.348;7.878;2023-05-08T13:53:16;25.20;58.20
68011;DHT22;54794;48.348;7.878;2023-05-08T13:55:43;25.10;58.40
68011;DHT22;54794;48.348;7.878;2023-05-08T13:58:11;25.00;58.40
68011;DHT22;54794;48.348;7.878;2023-05-08T14:00:38;24.90;58.50
68011;DHT22;54794;48.348;7.878;2023-05-08T14:03:05;24.80;58.50
68011;DHT22;54794;48.348;7.878;2023-05-08T14:05:33;24.80;58.80
68011;DHT22;54794;48.348;7.878;2023-05-08T14:08:00;24.70;59.00
68011;DHT22;54794;48.348;7.878;2023-05-08T14:10:28;24.70;58.80
68011;DHT22;54794;48.348;7.878;2023-05-08T14:12:55;24.70;58.80
68011;DHT22;54794;48.348;7.878;2023-05-08T14:15:22;24.60;59.10
68011;DHT22;54794;48.348;7.878;2023-05-08T14:18:03;24.60;59.50
68011;DHT22;54794;48.348;7.878;2023-05-08T14:20:30;24.60;60.10
68011;DHT22;54794;48.348;7.878;2023-05-08T14:22:57;24.70;59.80
68011;DHT22;54794;48.348;7.878;2023-05-08T14:25:25;24.70;60.00
68011;DHT22;54794;48.348;7.878;2023-05-08T14:27:52;24.80;60.50
68011;DHT22;54794;48.348;7.878;2023-05-08T14:30:19;24.80;59.90
68011;DHT22;54794;48.348;7.878;2023-05-08T14:32:46;24.90;59.70
68011;DHT22;54794;48.348;7.878;2023-05-08T14:35:15;24.90;59.40
68011;DHT22;54794;48.348;7.878;2023-05-08T14:37:42;25.00;59.50
68011;DHT22;54794;48.348;7.878;2023-05-08T14:40:12;25.00;59.30
68011;DHT22;54794;48.348;7.878;2023-05-08T14:42:39;25.00;59.20
68011;DHT22;54794;48.348;7.878;2023-05-08T14:45:07;24.90;59.10
68011;DHT22;54794;48.348;7.878;2023-05-08T14:47:34;24.90;59.00
68011;DHT22;54794;48.348;7.878;2023-05-08T14:50:13;24.90;59.00
68011;DHT22;54794;48.348;7.878;2023-05-08T14:52:46;24.90;59.00
68011;DHT22;54794;48.348;7.878;2023-05-08T14:55:24;24.90;58.90
68011;DHT22;54794;48.348;7.878;2023-05-08T14:57:53;24.80;59.10
68011;DHT22;54794;48.348;7.878;2023-05-08T15:00:22;24.80;59.00
68011;DHT22;54794;48.348;7.878;2023-05-08T15:03:37;24.80;58.80
68011;DHT22;54794;48.348;7.878;2023-05-08T15:06:09;25.10;59.20
68011;DHT22;54794;48.348;7.878;2023-05-08T15:08:40;24.90;59.40
68011;DHT22;54794;48.348;7.878;2023-05-08T15:11:08;25.10;59.80
68011;DHT22;54794;48.348;7.878;2023-05-08T15:13:35;25.20;59.70
68011;DHT22;54794;48.348;7.878;2023-05-08T15:16:05;25.30;59.20
68011;DHT22;54794;48.348;7.878;2023-05-08T15:18:42;25.30;59.00
68011;DHT22;54794;48.348;7.878;2023-05-08T15:21:11;25.40;58.70
68011;DHT22;54794;48.348;7.878;2023-05-08T15:23:44;25.50;58.70
68011;DHT22;54794;48.348;7.878;2023-05-08T15:26:15;25.50;58.90
68011;DHT22;54794;48.348;7.878;2023-05-08T15:28:42;25.50;58.30
68011;DHT22;54794;48.348;7.878;2023-05-08T15:31:13;25.50;58.30
68011;DHT22;54794;48.348;7.878;2023-05-08T15:33:50;25.60;58.30
68011;DHT22;54794;48.348;7.878;2023-05-08T15:36:26;25.70;59.30
68011;DHT22;54794;48.348;7.878;2023-05-08T15:39:01;25.80;59.30
68011;DHT22;54794;48.348;7.878;2023-05-08T15:41:28;25.90;59.10
68011;DHT22;54794;48.348;7.878;2023-05-08T15:43:55;26.00;59.00
68011;DHT22;54794;48.348;7.878;2023-05-08T15:46:23;26.00;58.50
68011;DHT22;54794;48.348;7.878;2023-05-08T15:48:50;26.00;58.30
68011;DHT22;54794;48.348;7.878;2023-05-08T15:51:16;26.00;58.10
68011;DHT22;54794;48.348;7.878;2023-05-08T15:53:43;25.90;58.00
68011;DHT22;54794;48.348;7.878;2023-05-08T15:56:13;25.90;58.00
68011;DHT22;54794;48.348;7.878;2023-05-08T15:58:52;25.80;57.90
68011;DHT22;54794;48.348;7.878;2023-05-08T16:01:21;25.70;57.70
68011;DHT22;54794;48.348;7.878;2023-05-08T16:03:50;25.70;57.90
68011;DHT22;54794;48.348;7.878;2023-05-08T16:06:17;25.60;57.80
68011;DHT22;54794;48.348;7.878;2023-05-08T16:08:49;25.50;58.10
68011;DHT22;54794;48.348;7.878;2023-05-08T16:11:17;25.60;58.00
68011;DHT22;54794;48.348;7.878;2023-05-08T16:13:44;25.50;57.90
68011;DHT22;54794;48.348;7.878;2023-05-08T16:16:17;25.50;58.40
68011;DHT22;54794;48.348;7.878;2023-05-08T16:18:44;25.50;58.50
68011;DHT22;54794;48.348;7.878;2023-05-08T16:21:11;25.40;58.40
68011;DHT22;54794;48.348;7.878;2023-05-08T16:23:41;25.50;58.50
68011;DHT22;54794;48.348;7.878;2023-05-08T16:26:13;25.50;58.00
68011;DHT22;54794;48.348;7.878;2023-05-08T16:28:46;25.50;58.00
68011;DHT22;54794;48.348;7.878;2023-05-08T16:31:56;25.40;57.70
68011;DHT22;54794;48.348;7.878;2023-05-08T16:35:20;25.10;57.40
68011;DHT22;54794;48.348;7.878;2023-05-08T16:37:50;25.30;57.30
68011;DHT22;54794;48.348;7.878;2023-05-08T16:40:20;25.10;57.30
68011;DHT22;54794;48.348;7.878;2023-05-08T16:42:47;25.10;57.40
68011;DHT22;54794;48.348;7.878;2023-05-08T16:45:14;25.00;57.60
68011;DHT22;54794;48.348;7.878;2023-05-08T16:47:41;24.90;57.80
68011;DHT22;54794;48.348;7.878;2023-05-08T16:50:11;24.90;57.80